sensor_id;sensor_type;location;lat;lon;timestamp;P1;durP1;ratioP1;P2;durP2;ratioP2
11957;SDS011;6039;52.576;13.348;2022-10-16T00:03:04;2.00;;;1.77;;
11957;SDS011;6039;52.576;13.348;2022-10-16T00:08:10;2.20;;;1.70;;
11957;SDS011;6039;52.576;13.348;2022-10-16T00:13:14;2.10;;;1.60;;
11957;SDS011;6039;52.576;13.348;2022-10-16T00:18:23;1.50;;;1.30;;
11957;SDS011;6039;52.576;13.348;2022-10-16T00:23:27;1.73;;;1.50;;
11957;SDS011;6039;52.576;13.348;2022-10-16T00:28:32;2.50;;;1.90;;
11957;SDS011;6039;52.576;13.348;2022-10-16T00:33:39;2.43;;;1.80;;
11957;SDS011;6039;52.576;13.348;2022-10-16T00:38:43;1.90;;;1.60;;
11957;SDS011;6039;52.576;13.348;2022-10-16T00:43:48;1.63;;;1.50;;
11957;SDS011;6039;52.576;13.348;2022-10-16T00:48:58;1.70;;;1.50;;
11957;SDS011;6039;52.576;13.348;2022-10-16T00:54:06;1.93;;;1.47;;
11957;SDS011;6039;52.576;13.348;2022-10-16T00:59:15;1.73;;;1.50;;
11957;SDS011;6039;52.576;13.348;2022-10-16T01:04:23;1.63;;;1.53;;
11957;SDS011;6039;52.576;13.348;2022-10-16T01:09:30;2.23;;;1.50;;
11957;SDS011;6039;52.576;13.348;2022-10-16T01:14:40;1.50;;;1.40;;
11957;SDS011;6039;52.576;13.348;2022-10-16T01:20:00;2.03;;;1.67;;
11957;SDS011;6039;52.576;13.348;2022-10-16T01:25:12;1.30;;;1.20;;
11957;SDS011;6039;52.576;13.348;2022-10-16T01:30:25;1.53;;;1.40;;
11957;SDS011;6039;52.576;13.348;2022-10-16T01:35:32;2.17;;;1.40;;
11957;SDS011;6039;52.576;13.348;2022-10-16T01:40:39;1.90;;;1.63;;
11957;SDS011;6039;52.576;13.348;2022-10-16T01:45:50;1.60;;;1.43;;
11957;SDS011;6039;52.576;13.348;2022-10-16T01:50:56;1.30;;;1.20;;
11957;SDS011;6039;52.576;13.348;2022-10-16T01:56:03;2.60;;;1.63;;
11957;SDS011;6039;52.576;13.348;2022-10-16T02:01:13;2.13;;;1.43;;
11957;SDS011;6039;52.576;13.348;2022-10-16T02:06:19;1.90;;;1.67;;
11957;SDS011;6039;52.576;13.348;2022-10-16T02:11:25;1.30;;;1.20;;
11957;SDS011;6039;52.576;13.348;2022-10-16T02:16:35;2.07;;;1.40;;
11957;SDS011;6039;52.576;13.348;2022-10-16T02:21:41;1.63;;;1.40;;
11957;SDS011;6039;52.576;13.348;2022-10-16T02:26:51;1.80;;;1.43;;
11957;SDS011;6039;52.576;13.348;2022-10-16T02:32:01;2.17;;;1.60;;
11957;SDS011;6039;52.576;13.348;2022-10-16T02:37:06;1.57;;;1.30;;
11957;SDS011;6039;52.576;13.348;2022-10-16T02:42:11;1.60;;;1.20;;
11957;SDS011;6039;52.576;13.348;2022-10-16T02:47:18;1.53;;;1.30;;
11957;SDS011;6039;52.576;13.348;2022-10-16T02:52:22;1.20;;;1.10;;
11957;SDS011;6039;52.576;13.348;2022-10-16T02:57:26;1.30;;;1.20;;
11957;SDS011;6039;52.576;13.348;2022-10-16T03:02:34;1.83;;;1.20;;
11957;SDS011;6039;52.576;13.348;2022-10-16T03:07:38;1.30;;;1.20;;
11957;SDS011;6039;52.576;13.348;2022-10-16T03:12:42;1.80;;;1.30;;
11957;SDS011;6039;52.576;13.348;2022-10-16T03:17:49;1.37;;;1.10;;
11957;SDS011;6039;52.576;13.348;2022-10-16T03:22:53;1.13;;;1.03;;
11957;SDS011;6039;52.576;13.348;2022-10-16T03:27:58;1.90;;;1.30;;
11957;SDS011;6039;52.576;13.348;2022-10-16T03:33:04;1.37;;;1.17;;
11957;SDS011;6039;52.576;13.348;2022-10-16T03:38:09;1.40;;;1.20;;
11957;SDS011;6039;52.576;13.348;2022-10-16T03:43:13;1.50;;;1.23;;
11957;SDS011;6039;52.576;13.348;2022-10-16T03:48:20;1.30;;;1.20;;
11957;SDS011;6039;52.576;13.348;2022-10-16T03:53:24;2.10;;;1.50;;
11957;SDS011;6039;52.576;13.348;2022-10-16T03:58:31;1.93;;;1.53;;
11957;SDS011;6039;52.576;13.348;2022-10-16T04:03:38;2.20;;;1.27;;
11957;SDS011;6039;52.576;13.348;2022-10-16T04:08:42;1.57;;;1.40;;
11957;SDS011;6039;52.576;13.348;2022-10-16T04:13:46;1.93;;;1.50;;
11957;SDS011;6039;52.576;13.348;2022-10-16T04:18:53;1.63;;;1.40;;
11957;SDS011;6039;52.576;13.348;2022-10-16T04:23:57;2.40;;;1.40;;
11957;SDS011;6039;52.576;13.348;2022-10-16T04:29:02;1.90;;;1.70;;
11957;SDS011;6039;52.576;13.348;2022-10-16T04:34:09;1.90;;;1.50;;
11957;SDS011;6039;52.576;13.348;2022-10-16T04:39:13;1.90;;;1.53;;
11957;SDS011;6039;52.576;13.348;2022-10-16T04:44:18;2.27;;;1.50;;
11957;SDS011;6039;52.576;13.348;2022-10-16T04:49:24;3.53;;;1.90;;
11957;SDS011;6039;52.576;13.348;2022-10-16T04:54:29;2.03;;;1.60;;
11957;SDS011;6039;52.576;13.348;2022-10-16T04:59:33;2.60;;;1.77;;
11957;SDS011;6039;52.576;13.348;2022-10-16T05:04:40;2.63;;;1.93;;
11957;SDS011;6039;52.576;13.348;2022-10-16T05:09:44;2.17;;;1.57;;
11957;SDS011;6039;52.576;13.348;2022-10-16T05:14:48;1.90;;;1.63;;
11957;SDS011;6039;52.576;13.348;2022-10-16T05:19:55;1.90;;;1.70;;
11957;SDS011;6039;52.576;13.348;2022-10-16T05:24:59;1.70;;;1.57;;
11957;SDS011;6039;52.576;13.348;2022-10-16T05:30:03;2.90;;;1.97;;
11957;SDS011;6039;52.576;13.348;2022-10-16T05:35:11;2.50;;;1.90;;
11957;SDS011;6039;52.576;13.348;2022-10-16T05:40:16;1.80;;;1.50;;
11957;SDS011;6039;52.576;13.348;2022-10-16T05:45:20;1.70;;;1.50;;
11957;SDS011;6039;52.576;13.348;2022-10-16T05:50:27;2.33;;;1.90;;
11957;SDS011;6039;52.576;13.348;2022-10-16T05:55:31;1.63;;;1.50;;
11957;SDS011;6039;52.576;13.348;2022-10-16T06:00:35;2.00;;;1.70;;
11957;SDS011;6039;52.576;13.348;2022-10-16T06:05:42;2.53;;;2.00;;
11957;SDS011;6039;52.576;13.348;2022-10-16T06:10:46;2.33;;;1.83;;
11957;SDS011;6039;52.576;13.348;2022-10-16T06:15:51;1.77;;;1.60;;
11957;SDS011;6039;52.576;13.348;2022-10-16T06:20:58;2.03;;;1.70;;
11957;SDS011;6039;52.576;13.348;2022-10-16T06:26:05;2.00;;;1.67;;
11957;SDS011;6039;52.576;13.348;2022-10-16T06:31:10;2.00;;;1.43;;
11957;SDS011;6039;52.576;13.348;2022-10-16T06:36:18;1.80;;;1.47;;
11957;SDS011;6039;52.576;13.348;2022-10-16T06:41:22;2.67;;;1.80;;
11957;SDS011;6039;52.576;13.348;2022-10-16T06:46:27;2.03;;;1.70;;
11957;SDS011;6039;52.576;13.348;2022-10-16T06:51:34;1.70;;;1.60;;
11957;SDS011;6039;52.576;13.348;2022-10-16T06:56:41;1.97;;;1.60;;
11957;SDS011;6039;52.576;13.348;2022-10-16T07:01:45;2.30;;;1.87;;
11957;SDS011;6039;52.576;13.348;2022-10-16T07:06:52;2.20;;;1.83;;
11957;SDS011;6039;52.576;13.348;2022-10-16T07:11:56;3.47;;;1.80;;
11957;SDS011;6039;52.576;13.348;2022-10-16T07:17:00;2.10;;;1.70;;
11957;SDS011;6039;52.576;13.348;2022-10-16T07:22:07;1.97;;;1.80;;
11957;SDS011;6039;52.576;13.348;2022-10-16T07:27:12;2.20;;;2.00;;
11957;SDS011;6039;52.576;13.348;2022-10-16T07:32:16;2.30;;;1.63;;
11957;SDS011;6039;52.576;13.348;2022-10-16T07:37:23;2.10;;;1.70;;
11957;SDS011;6039;52.576;13.348;2022-10-16T07:42:27;1.70;;;1.60;;
11957;SDS011;6039;52.576;13.348;2022-10-16T07:47:32;1.40;;;1.30;;
11957;SDS011;6039;52.576;13.348;2022-10-16T07:52:39;1.60;;;1.40;;
11957;SDS011;6039;52.576;13.348;2022-10-16T07:57:43;2.00;;;1.50;;
11957;SDS011;6039;52.576;13.348;2022-10-16T08:02:47;1.67;;;1.30;;
11957;SDS011;6039;52.576;13.348;2022-10-16T08:07:54;1.50;;;1.40;;
11957;SDS011;6039;52.576;13.348;2022-10-16T08:12:58;1.73;;;1.47;;
11957;SDS011;6039;52.576;13.348;2022-10-16T08:18:03;1.50;;;1.40;;
11957;SDS011;6039;52.576;13.348;2022-10-16T08:23:11;1.93;;;1.50;;
11957;SDS011;6039;52.576;13.348;2022-10-16T08:28:15;1.67;;;1.37;;
11957;SDS011;6039;52.576;13.348;2022-10-16T08:33:19;1.43;;;1.20;;
11957;SDS011;6039;52.576;13.348;2022-10-16T08:38:26;1.83;;;1.40;;
11957;SDS011;6039;52.576;13.348;2022-10-16T08:43:34;1.90;;;1.27;;
11957;SDS011;6039;52.576;13.348;2022-10-16T08:48:45;1.60;;;1.50;;
11957;SDS011;6039;52.576;13.348;2022-10-16T08:53:53;1.80;;;1.50;;
11957;SDS011;6039;52.576;13.348;2022-10-16T08:58:59;1.47;;;1.30;;
11957;SDS011;6039;52.576;13.348;2022-10-16T09:04:13;1.63;;;1.47;;
11957;SDS011;6039;52.576;13.348;2022-10-16T09:09:45;1.53;;;1.10;;
11957;SDS011;6039;52.576;13.348;2022-10-16T09:14:58;1.40;;;1.17;;
11957;SDS011;6039;52.576;13.348;2022-10-16T09:25:36;1.20;;;1.10;;
11957;SDS011;6039;52.576;13.348;2022-10-16T09:30:42;1.63;;;1.40;;
11957;SDS011;6039;52.576;13.348;2022-10-16T09:35:48;2.10;;;1.37;;
11957;SDS011;6039;52.576;13.348;2022-10-16T09:40:56;1.43;;;1.17;;
11957;SDS011;6039;52.576;13.348;2022-10-16T09:46:02;1.30;;;1.20;;
11957;SDS011;6039;52.576;13.348;2022-10-16T09:51:16;1.47;;;1.30;;
11957;SDS011;6039;52.576;13.348;2022-10-16T09:56:26;1.20;;;1.10;;
11957;SDS011;6039;52.576;13.348;2022-10-16T10:01:35;1.20;;;1.10;;
11957;SDS011;6039;52.576;13.348;2022-10-16T10:06:43;1.30;;;1.20;;
11957;SDS011;6039;52.576;13.348;2022-10-16T10:11:55;2.90;;;1.20;;
11957;SDS011;6039;52.576;13.348;2022-10-16T10:17:11;1.40;;;1.20;;
11957;SDS011;6039;52.576;13.348;2022-10-16T10:22:23;1.30;;;1.20;;
11957;SDS011;6039;52.576;13.348;2022-10-16T10:27:36;1.70;;;1.27;;
11957;SDS011;6039;52.576;13.348;2022-10-16T10:32:47;1.20;;;1.10;;
11957;SDS011;6039;52.576;13.348;2022-10-16T10:38:06;1.23;;;1.13;;
11957;SDS011;6039;52.576;13.348;2022-10-16T10:43:32;2.43;;;1.57;;
11957;SDS011;6039;52.576;13.348;2022-10-16T10:48:49;1.20;;;1.10;;
11957;SDS011;6039;52.576;13.348;2022-10-16T10:54:07;1.93;;;1.40;;
11957;SDS011;6039;52.576;13.348;2022-10-16T10:59:30;1.20;;;1.10;;
11957;SDS011;6039;52.576;13.348;2022-10-16T11:10:50;1.73;;;1.17;;
11957;SDS011;6039;52.576;13.348;2022-10-16T11:16:00;1.30;;;1.00;;
11957;SDS011;6039;52.576;13.348;2022-10-16T11:21:07;0.93;;;0.90;;
11957;SDS011;6039;52.576;13.348;2022-10-16T11:26:14;1.23;;;1.00;;
11957;SDS011;6039;52.576;13.348;2022-10-16T11:31:25;0.90;;;0.90;;
11957;SDS011;6039;52.576;13.348;2022-10-16T11:36:36;1.27;;;1.03;;
11957;SDS011;6039;52.576;13.348;2022-10-16T11:41:44;1.20;;;1.10;;
11957;SDS011;6039;52.576;13.348;2022-10-16T11:47:02;1.17;;;1.07;;
11957;SDS011;6039;52.576;13.348;2022-10-16T11:52:17;1.10;;;0.97;;
11957;SDS011;6039;52.576;13.348;2022-10-16T11:57:24;1.00;;;0.90;;
11957;SDS011;6039;52.576;13.348;2022-10-16T12:02:40;0.70;;;0.70;;
11957;SDS011;6039;52.576;13.348;2022-10-16T12:07:56;0.70;;;0.70;;
11957;SDS011;6039;52.576;13.348;2022-10-16T12:18:41;0.70;;;0.70;;
11957;SDS011;6039;52.576;13.348;2022-10-16T12:23:47;0.60;;;0.60;;
11957;SDS011;6039;52.576;13.348;2022-10-16T12:28:53;0.80;;;0.80;;
11957;SDS011;6039;52.576;13.348;2022-10-16T12:34:00;0.57;;;0.57;;
11957;SDS011;6039;52.576;13.348;2022-10-16T12:39:05;1.00;;;0.90;;
11957;SDS011;6039;52.576;13.348;2022-10-16T12:44:25;0.80;;;0.77;;
11957;SDS011;6039;52.576;13.348;2022-10-16T12:49:34;0.50;;;0.50;;
11957;SDS011;6039;52.576;13.348;2022-10-16T12:54:40;0.83;;;0.70;;
11957;SDS011;6039;52.576;13.348;2022-10-16T12:59:46;1.23;;;0.73;;
11957;SDS011;6039;52.576;13.348;2022-10-16T13:05:01;0.70;;;0.70;;
11957;SDS011;6039;52.576;13.348;2022-10-16T13:10:15;1.10;;;0.73;;
11957;SDS011;6039;52.576;13.348;2022-10-16T13:15:32;0.60;;;0.60;;
11957;SDS011;6039;52.576;13.348;2022-10-16T13:20:53;0.80;;;0.80;;
11957;SDS011;6039;52.576;13.348;2022-10-16T13:26:08;0.70;;;0.70;;
11957;SDS011;6039;52.576;13.348;2022-10-16T13:31:18;0.70;;;0.57;;
11957;SDS011;6039;52.576;13.348;2022-10-16T13:36:27;0.50;;;0.50;;
11957;SDS011;6039;52.576;13.348;2022-10-16T13:41:33;0.70;;;0.60;;
11957;SDS011;6039;52.576;13.348;2022-10-16T13:46:37;0.63;;;0.60;;
11957;SDS011;6039;52.576;13.348;2022-10-16T13:51:53;0.43;;;0.43;;
11957;SDS011;6039;52.576;13.348;2022-10-16T13:57:04;0.40;;;0.40;;
11957;SDS011;6039;52.576;13.348;2022-10-16T14:02:26;0.33;;;0.33;;
11957;SDS011;6039;52.576;13.348;2022-10-16T14:07:35;0.60;;;0.53;;
11957;SDS011;6039;52.576;13.348;2022-10-16T14:12:40;0.50;;;0.50;;
11957;SDS011;6039;52.576;13.348;2022-10-16T14:17:48;0.70;;;0.60;;
11957;SDS011;6039;52.576;13.348;2022-10-16T14:23:03;0.40;;;0.40;;
11957;SDS011;6039;52.576;13.348;2022-10-16T14:28:20;2.27;;;0.70;;
11957;SDS011;6039;52.576;13.348;2022-10-16T14:33:31;0.60;;;0.60;;
11957;SDS011;6039;52.576;13.348;2022-10-16T14:38:39;0.70;;;0.70;;
11957;SDS011;6039;52.576;13.348;2022-10-16T14:43:49;0.63;;;0.63;;
11957;SDS011;6039;52.576;13.348;2022-10-16T14:48:57;0.80;;;0.80;;
11957;SDS011;6039;52.576;13.348;2022-10-16T14:54:07;0.70;;;0.70;;
11957;SDS011;6039;52.576;13.348;2022-10-16T14:59:13;0.50;;;0.50;;
11957;SDS011;6039;52.576;13.348;2022-10-16T15:04:20;0.80;;;0.80;;
11957;SDS011;6039;52.576;13.348;2022-10-16T15:09:27;1.03;;;0.70;;
11957;SDS011;6039;52.576;13.348;2022-10-16T15:14:31;1.00;;;0.70;;
11957;SDS011;6039;52.576;13.348;2022-10-16T15:19:35;0.93;;;0.77;;
11957;SDS011;6039;52.576;13.348;2022-10-16T15:24:42;0.70;;;0.63;;
11957;SDS011;6039;52.576;13.348;2022-10-16T15:29:46;0.70;;;0.70;;
11957;SDS011;6039;52.576;13.348;2022-10-16T15:34:51;0.97;;;0.80;;
11957;SDS011;6039;52.576;13.348;2022-10-16T15:40:00;1.00;;;0.90;;
11957;SDS011;6039;52.576;13.348;2022-10-16T15:45:07;1.00;;;0.90;;
11957;SDS011;6039;52.576;13.348;2022-10-16T15:50:18;1.37;;;1.20;;
11957;SDS011;6039;52.576;13.348;2022-10-16T15:55:25;1.53;;;1.33;;
11957;SDS011;6039;52.576;13.348;2022-10-16T16:00:32;2.07;;;1.20;;
11957;SDS011;6039;52.576;13.348;2022-10-16T16:05:37;3.73;;;2.27;;
11957;SDS011;6039;52.576;13.348;2022-10-16T16:10:44;2.33;;;1.67;;
11957;SDS011;6039;52.576;13.348;2022-10-16T16:16:00;2.07;;;1.60;;
11957;SDS011;6039;52.576;13.348;2022-10-16T16:21:08;2.47;;;1.60;;
11957;SDS011;6039;52.576;13.348;2022-10-16T16:26:21;1.60;;;1.40;;
11957;SDS011;6039;52.576;13.348;2022-10-16T16:31:27;1.97;;;1.60;;
11957;SDS011;6039;52.576;13.348;2022-10-16T16:36:32;2.73;;;1.87;;
11957;SDS011;6039;52.576;13.348;2022-10-16T16:41:39;3.10;;;1.60;;
11957;SDS011;6039;52.576;13.348;2022-10-16T16:46:45;2.67;;;1.60;;
11957;SDS011;6039;52.576;13.348;2022-10-16T16:51:49;1.93;;;1.67;;
11957;SDS011;6039;52.576;13.348;2022-10-16T16:56:57;2.00;;;1.80;;
11957;SDS011;6039;52.576;13.348;2022-10-16T17:02:02;2.77;;;1.90;;
11957;SDS011;6039;52.576;13.348;2022-10-16T17:07:06;2.83;;;1.67;;
11957;SDS011;6039;52.576;13.348;2022-10-16T17:12:13;4.03;;;1.83;;
11957;SDS011;6039;52.576;13.348;2022-10-16T17:17:17;2.50;;;1.80;;
11957;SDS011;6039;52.576;13.348;2022-10-16T17:22:22;2.23;;;1.57;;
11957;SDS011;6039;52.576;13.348;2022-10-16T17:27:28;2.87;;;1.60;;
11957;SDS011;6039;52.576;13.348;2022-10-16T17:32:33;3.03;;;2.10;;
11957;SDS011;6039;52.576;13.348;2022-10-16T17:37:37;2.80;;;2.10;;
11957;SDS011;6039;52.576;13.348;2022-10-16T17:42:44;5.53;;;2.50;;
11957;SDS011;6039;52.576;13.348;2022-10-16T17:47:49;3.17;;;2.17;;
11957;SDS011;6039;52.576;13.348;2022-10-16T17:52:53;2.67;;;1.90;;
11957;SDS011;6039;52.576;13.348;2022-10-16T17:57:59;2.17;;;1.90;;
11957;SDS011;6039;52.576;13.348;2022-10-16T18:03:04;2.87;;;2.10;;
11957;SDS011;6039;52.576;13.348;2022-10-16T18:08:08;4.67;;;2.97;;
11957;SDS011;6039;52.576;13.348;2022-10-16T18:13:15;2.60;;;1.87;;
11957;SDS011;6039;52.576;13.348;2022-10-16T18:18:19;2.63;;;2.00;;
11957;SDS011;6039;52.576;13.348;2022-10-16T18:23:24;2.87;;;2.23;;
11957;SDS011;6039;52.576;13.348;2022-10-16T18:28:31;4.33;;;3.43;;
11957;SDS011;6039;52.576;13.348;2022-10-16T18:33:36;4.50;;;3.03;;
11957;SDS011;6039;52.576;13.348;2022-10-16T18:38:43;4.83;;;3.30;;
11957;SDS011;6039;52.576;13.348;2022-10-16T18:43:50;4.47;;;3.40;;
11957;SDS011;6039;52.576;13.348;2022-10-16T18:48:55;6.43;;;4.07;;
11957;SDS011;6039;52.576;13.348;2022-10-16T18:54:01;5.33;;;3.97;;
11957;SDS011;6039;52.576;13.348;2022-10-16T18:59:09;4.57;;;3.20;;
11957;SDS011;6039;52.576;13.348;2022-10-16T19:04:14;5.13;;;3.93;;
11957;SDS011;6039;52.576;13.348;2022-10-16T19:09:21;6.53;;;4.80;;
11957;SDS011;6039;52.576;13.348;2022-10-16T19:14:28;9.40;;;5.87;;
11957;SDS011;6039;52.576;13.348;2022-10-16T19:19:36;6.23;;;4.27;;
11957;SDS011;6039;52.576;13.348;2022-10-16T19:24:42;7.03;;;4.53;;
11957;SDS011;6039;52.576;13.348;2022-10-16T19:29:49;6.70;;;4.10;;
11957;SDS011;6039;52.576;13.348;2022-10-16T19:34:53;7.00;;;4.70;;
11957;SDS011;6039;52.576;13.348;2022-10-16T19:39:58;9.53;;;5.40;;
11957;SDS011;6039;52.576;13.348;2022-10-16T19:45:06;8.33;;;5.30;;
11957;SDS011;6039;52.576;13.348;2022-10-16T19:50:11;7.30;;;4.53;;
11957;SDS011;6039;52.576;13.348;2022-10-16T19:55:15;9.77;;;6.30;;
11957;SDS011;6039;52.576;13.348;2022-10-16T20:00:22;9.27;;;5.80;;
11957;SDS011;6039;52.576;13.348;2022-10-16T20:05:26;9.83;;;6.03;;
11957;SDS011;6039;52.576;13.348;2022-10-16T20:10:34;10.53;;;6.47;;
11957;SDS011;6039;52.576;13.348;2022-10-16T20:15:40;9.03;;;6.10;;
11957;SDS011;6039;52.576;13.348;2022-10-16T20:20:45;10.13;;;6.07;;
11957;SDS011;6039;52.576;13.348;2022-10-16T20:25:51;8.33;;;5.63;;
11957;SDS011;6039;52.576;13.348;2022-10-16T20:31:04;10.67;;;5.50;;
11957;SDS011;6039;52.576;13.348;2022-10-16T20:36:11;8.80;;;5.93;;
11957;SDS011;6039;52.576;13.348;2022-10-16T20:41:16;11.13;;;5.50;;
11957;SDS011;6039;52.576;13.348;2022-10-16T20:46:24;9.10;;;5.80;;
11957;SDS011;6039;52.576;13.348;2022-10-16T20:51:30;9.63;;;6.10;;
11957;SDS011;6039;52.576;13.348;2022-10-16T20:56:38;8.63;;;5.60;;
11957;SDS011;6039;52.576;13.348;2022-10-16T21:01:45;9.63;;;5.90;;
11957;SDS011;6039;52.576;13.348;2022-10-16T21:06:49;8.37;;;5.90;;
11957;SDS011;6039;52.576;13.348;2022-10-16T21:11:54;10.30;;;5.33;;
11957;SDS011;6039;52.576;13.348;2022-10-16T21:17:01;8.83;;;5.67;;
11957;SDS011;6039;52.576;13.348;2022-10-16T21:22:05;9.47;;;5.70;;
11957;SDS011;6039;52.576;13.348;2022-10-16T21:27:09;9.53;;;5.67;;
11957;SDS011;6039;52.576;13.348;2022-10-16T21:32:16;8.20;;;5.50;;
11957;SDS011;6039;52.576;13.348;2022-10-16T21:37:20;8.13;;;5.40;;
11957;SDS011;6039;52.576;13.348;2022-10-16T21:42:24;8.20;;;5.60;;
11957;SDS011;6039;52.576;13.348;2022-10-16T21:47:31;9.23;;;6.17;;
11957;SDS011;6039;52.576;13.348;2022-10-16T21:52:36;7.10;;;5.37;;
11957;SDS011;6039;52.576;13.348;2022-10-16T21:57:40;8.50;;;5.90;;
11957;SDS011;6039;52.576;13.348;2022-10-16T22:02:47;10.47;;;6.03;;
11957;SDS011;6039;52.576;13.348;2022-10-16T22:07:51;9.70;;;6.27;;
11957;SDS011;6039;52.576;13.348;2022-10-16T22:12:55;10.83;;;5.57;;
11957;SDS011;6039;52.576;13.348;2022-10-16T22:18:02;7.77;;;5.70;;
11957;SDS011;6039;52.576;13.348;2022-10-16T22:23:06;8.97;;;6.20;;
11957;SDS011;6039;52.576;13.348;2022-10-16T22:28:10;10.50;;;5.87;;
11957;SDS011;6039;52.576;13.348;2022-10-16T22:33:20;10.83;;;6.90;;
11957;SDS011;6039;52.576;13.348;2022-10-16T22:38:24;11.87;;;6.17;;
11957;SDS011;6039;52.576;13.348;2022-10-16T22:43:30;10.47;;;6.03;;
11957;SDS011;6039;52.576;13.348;2022-10-16T22:48:39;10.40;;;6.27;;
11957;SDS011;6039;52.576;13.348;2022-10-16T22:53:44;10.93;;;6.90;;
11957;SDS011;6039;52.576;13.348;2022-10-16T22:58:49;12.00;;;6.97;;
11957;SDS011;6039;52.576;13.348;2022-10-16T23:03:56;11.20;;;7.10;;
11957;SDS011;6039;52.576;13.348;2022-10-16T23:09:00;10.07;;;6.67;;
11957;SDS011;6039;52.576;13.348;2022-10-16T23:14:05;8.80;;;5.97;;
11957;SDS011;6039;52.576;13.348;2022-10-16T23:19:12;11.03;;;7.07;;
11957;SDS011;6039;52.576;13.348;2022-10-16T23:24:16;10.77;;;7.00;;
11957;SDS011;6039;52.576;13.348;2022-10-16T23:29:20;12.40;;;7.17;;
11957;SDS011;6039;52.576;13.348;2022-10-16T23:34:27;11.13;;;6.43;;
11957;SDS011;6039;52.576;13.348;2022-10-16T23:39:31;10.27;;;6.27;;
11957;SDS011;6039;52.576;13.348;2022-10-16T23:44:35;9.83;;;6.83;;
11957;SDS011;6039;52.576;13.348;2022-10-16T23:49:42;12.07;;;6.47;;
11957;SDS011;6039;52.576;13.348;2022-10-16T23:54:46;11.70;;;7.07;;
11957;SDS011;6039;52.576;13.348;2022-10-16T23:59:51;10.57;;;6.70;;
